sensor_id;sensor_type;location;lat;lon;timestamp;P1;durP1;ratioP1;P2;durP2;ratioP2
40997;SDS011;26740;45.944;12.480;2022-12-18T00:00:42;5.45;;;3.42;;
40997;SDS011;26740;45.944;12.480;2022-12-18T00:03:09;10.18;;;4.25;;
40997;SDS011;26740;45.944;12.480;2022-12-18T00:05:35;7.53;;;4.30;;
40997;SDS011;26740;45.944;12.480;2022-12-18T00:08:01;6.30;;;3.75;;
40997;SDS011;26740;45.944;12.480;2022-12-18T00:10:28;7.43;;;4.20;;
40997;SDS011;26740;45.944;12.480;2022-12-18T00:12:53;7.82;;;4.68;;
40997;SDS011;26740;45.944;12.480;2022-12-18T00:15:19;8.25;;;3.97;;
40997;SDS011;26740;45.944;12.480;2022-12-18T00:17:45;7.53;;;4.35;;
40997;SDS011;26740;45.944;12.480;2022-12-18T00:20:11;7.38;;;4.50;;
40997;SDS011;26740;45.944;12.480;2022-12-18T00:22:36;9.68;;;4.50;;
40997;SDS011;26740;45.944;12.480;2022-12-18T00:25:02;8.48;;;4.88;;
40997;SDS011;26740;45.944;12.480;2022-12-18T00:27:28;8.38;;;4.82;;
40997;SDS011;26740;45.944;12.480;2022-12-18T00:29:54;9.55;;;5.25;;
40997;SDS011;26740;45.944;12.480;2022-12-18T00:32:19;9.02;;;4.88;;
40997;SDS011;26740;45.944;12.480;2022-12-18T00:34:45;12.75;;;5.18;;
40997;SDS011;26740;45.944;12.480;2022-12-18T00:37:10;10.68;;;5.93;;
40997;SDS011;26740;45.944;12.480;2022-12-18T00:39:36;7.57;;;4.18;;
40997;SDS011;26740;45.944;12.480;2022-12-18T00:42:02;8.88;;;4.15;;
40997;SDS011;26740;45.944;12.480;2022-12-18T00:44:46;6.45;;;4.72;;
40997;SDS011;26740;45.944;12.480;2022-12-18T00:47:11;7.43;;;4.03;;
40997;SDS011;26740;45.944;12.480;2022-12-18T00:49:37;7.00;;;4.15;;
40997;SDS011;26740;45.944;12.480;2022-12-18T00:52:02;7.93;;;4.20;;
40997;SDS011;26740;45.944;12.480;2022-12-18T00:54:28;7.28;;;3.88;;
40997;SDS011;26740;45.944;12.480;2022-12-18T00:56:54;7.95;;;4.20;;
40997;SDS011;26740;45.944;12.480;2022-12-18T00:59:20;7.72;;;4.18;;
40997;SDS011;26740;45.944;12.480;2022-12-18T01:01:46;7.00;;;3.47;;
40997;SDS011;26740;45.944;12.480;2022-12-18T01:04:12;7.60;;;4.40;;
40997;SDS011;26740;45.944;12.480;2022-12-18T01:06:38;5.70;;;3.58;;
40997;SDS011;26740;45.944;12.480;2022-12-18T01:09:04;6.50;;;3.78;;
40997;SDS011;26740;45.944;12.480;2022-12-18T01:11:30;6.65;;;3.60;;
40997;SDS011;26740;45.944;12.480;2022-12-18T01:13:56;5.85;;;3.00;;
40997;SDS011;26740;45.944;12.480;2022-12-18T01:16:24;6.70;;;3.88;;
40997;SDS011;26740;45.944;12.480;2022-12-18T01:18:53;8.60;;;3.92;;
40997;SDS011;26740;45.944;12.480;2022-12-18T01:21:19;9.90;;;5.15;;
40997;SDS011;26740;45.944;12.480;2022-12-18T01:23:46;9.57;;;4.20;;
40997;SDS011;26740;45.944;12.480;2022-12-18T01:26:15;8.35;;;3.85;;
40997;SDS011;26740;45.944;12.480;2022-12-18T01:28:41;9.15;;;4.63;;
40997;SDS011;26740;45.944;12.480;2022-12-18T01:33:42;8.48;;;4.07;;
40997;SDS011;26740;45.944;12.480;2022-12-18T01:36:14;7.13;;;3.97;;
40997;SDS011;26740;45.944;12.480;2022-12-18T01:38:48;8.07;;;4.13;;
40997;SDS011;26740;45.944;12.480;2022-12-18T01:41:15;6.82;;;3.70;;
40997;SDS011;26740;45.944;12.480;2022-12-18T01:43:44;5.90;;;2.80;;
40997;SDS011;26740;45.944;12.480;2022-12-18T01:46:17;8.70;;;3.72;;
40997;SDS011;26740;45.944;12.480;2022-12-18T01:48:44;6.38;;;3.58;;
40997;SDS011;26740;45.944;12.480;2022-12-18T01:51:13;6.60;;;3.75;;
40997;SDS011;26740;45.944;12.480;2022-12-18T01:53:39;6.90;;;3.50;;
40997;SDS011;26740;45.944;12.480;2022-12-18T01:56:06;4.68;;;3.00;;
40997;SDS011;26740;45.944;12.480;2022-12-18T01:58:39;6.05;;;3.25;;
40997;SDS011;26740;45.944;12.480;2022-12-18T02:01:06;7.38;;;3.95;;
40997;SDS011;26740;45.944;12.480;2022-12-18T02:03:33;9.70;;;3.88;;
40997;SDS011;26740;45.944;12.480;2022-12-18T02:09:21;6.93;;;3.90;;
40997;SDS011;26740;45.944;12.480;2022-12-18T02:12:10;4.70;;;2.88;;
40997;SDS011;26740;45.944;12.480;2022-12-18T02:18:12;6.88;;;3.70;;
40997;SDS011;26740;45.944;12.480;2022-12-18T02:29:10;5.60;;;2.97;;
40997;SDS011;26740;45.944;12.480;2022-12-18T02:31:43;7.80;;;3.92;;
40997;SDS011;26740;45.944;12.480;2022-12-18T02:34:14;6.50;;;3.38;;
40997;SDS011;26740;45.944;12.480;2022-12-18T02:36:41;5.35;;;3.30;;
40997;SDS011;26740;45.944;12.480;2022-12-18T02:39:11;5.60;;;3.38;;
40997;SDS011;26740;45.944;12.480;2022-12-18T02:41:38;5.93;;;3.63;;
40997;SDS011;26740;45.944;12.480;2022-12-18T02:44:10;5.40;;;3.22;;
40997;SDS011;26740;45.944;12.480;2022-12-18T02:49:29;5.38;;;3.10;;
40997;SDS011;26740;45.944;12.480;2022-12-18T02:57:20;7.35;;;4.10;;
40997;SDS011;26740;45.944;12.480;2022-12-18T03:00:07;5.35;;;3.53;;
40997;SDS011;26740;45.944;12.480;2022-12-18T03:02:48;4.60;;;3.20;;
40997;SDS011;26740;45.944;12.480;2022-12-18T03:05:28;5.55;;;3.03;;
40997;SDS011;26740;45.944;12.480;2022-12-18T03:08:03;6.90;;;4.13;;
40997;SDS011;26740;45.944;12.480;2022-12-18T03:10:29;6.80;;;3.83;;
40997;SDS011;26740;45.944;12.480;2022-12-18T03:13:10;5.53;;;3.22;;
40997;SDS011;26740;45.944;12.480;2022-12-18T03:15:42;7.43;;;4.35;;
40997;SDS011;26740;45.944;12.480;2022-12-18T03:18:17;9.52;;;4.03;;
40997;SDS011;26740;45.944;12.480;2022-12-18T03:20:47;6.75;;;3.63;;
40997;SDS011;26740;45.944;12.480;2022-12-18T03:23:19;5.53;;;3.03;;
40997;SDS011;26740;45.944;12.480;2022-12-18T03:25:49;6.00;;;3.85;;
40997;SDS011;26740;45.944;12.480;2022-12-18T03:28:20;8.23;;;4.22;;
40997;SDS011;26740;45.944;12.480;2022-12-18T03:30:47;8.20;;;4.40;;
40997;SDS011;26740;45.944;12.480;2022-12-18T03:33:29;6.55;;;4.10;;
40997;SDS011;26740;45.944;12.480;2022-12-18T03:36:01;4.40;;;3.28;;
40997;SDS011;26740;45.944;12.480;2022-12-18T03:38:27;9.52;;;4.25;;
40997;SDS011;26740;45.944;12.480;2022-12-18T03:40:59;7.57;;;3.92;;
40997;SDS011;26740;45.944;12.480;2022-12-18T03:43:39;7.20;;;3.42;;
40997;SDS011;26740;45.944;12.480;2022-12-18T03:49:09;7.57;;;3.33;;
40997;SDS011;26740;45.944;12.480;2022-12-18T03:51:45;9.50;;;4.15;;
40997;SDS011;26740;45.944;12.480;2022-12-18T03:54:17;5.63;;;3.38;;
40997;SDS011;26740;45.944;12.480;2022-12-18T03:56:45;6.13;;;3.30;;
40997;SDS011;26740;45.944;12.480;2022-12-18T03:59:16;6.20;;;3.70;;
40997;SDS011;26740;45.944;12.480;2022-12-18T04:01:47;5.13;;;3.78;;
40997;SDS011;26740;45.944;12.480;2022-12-18T04:04:16;9.75;;;4.20;;
40997;SDS011;26740;45.944;12.480;2022-12-18T04:06:44;6.55;;;3.75;;
40997;SDS011;26740;45.944;12.480;2022-12-18T04:09:12;5.53;;;3.58;;
40997;SDS011;26740;45.944;12.480;2022-12-18T04:11:40;5.78;;;3.60;;
40997;SDS011;26740;45.944;12.480;2022-12-18T04:14:09;6.55;;;3.28;;
40997;SDS011;26740;45.944;12.480;2022-12-18T04:16:35;7.15;;;4.18;;
40997;SDS011;26740;45.944;12.480;2022-12-18T04:19:00;8.18;;;4.10;;
40997;SDS011;26740;45.944;12.480;2022-12-18T04:21:26;6.15;;;4.30;;
40997;SDS011;26740;45.944;12.480;2022-12-18T04:23:52;10.00;;;4.60;;
40997;SDS011;26740;45.944;12.480;2022-12-18T04:26:17;6.25;;;3.97;;
40997;SDS011;26740;45.944;12.480;2022-12-18T04:28:43;10.02;;;4.05;;
40997;SDS011;26740;45.944;12.480;2022-12-18T04:31:09;6.90;;;3.47;;
40997;SDS011;26740;45.944;12.480;2022-12-18T04:33:34;7.35;;;4.88;;
40997;SDS011;26740;45.944;12.480;2022-12-18T04:36:00;8.85;;;3.92;;
40997;SDS011;26740;45.944;12.480;2022-12-18T04:38:26;6.43;;;4.28;;
40997;SDS011;26740;45.944;12.480;2022-12-18T04:40:51;6.93;;;4.43;;
40997;SDS011;26740;45.944;12.480;2022-12-18T04:43:17;7.47;;;4.43;;
40997;SDS011;26740;45.944;12.480;2022-12-18T04:45:42;6.78;;;3.70;;
40997;SDS011;26740;45.944;12.480;2022-12-18T04:48:08;6.88;;;3.50;;
40997;SDS011;26740;45.944;12.480;2022-12-18T04:50:34;8.60;;;5.05;;
40997;SDS011;26740;45.944;12.480;2022-12-18T04:52:59;4.95;;;3.55;;
40997;SDS011;26740;45.944;12.480;2022-12-18T04:55:25;20.67;;;4.47;;
40997;SDS011;26740;45.944;12.480;2022-12-18T04:57:52;6.50;;;4.57;;
40997;SDS011;26740;45.944;12.480;2022-12-18T05:00:18;8.43;;;4.93;;
40997;SDS011;26740;45.944;12.480;2022-12-18T05:02:44;6.53;;;4.40;;
40997;SDS011;26740;45.944;12.480;2022-12-18T05:05:09;7.40;;;4.25;;
40997;SDS011;26740;45.944;12.480;2022-12-18T05:07:35;8.13;;;5.22;;
40997;SDS011;26740;45.944;12.480;2022-12-18T05:10:01;11.30;;;4.60;;
40997;SDS011;26740;45.944;12.480;2022-12-18T05:12:27;7.78;;;4.72;;
40997;SDS011;26740;45.944;12.480;2022-12-18T05:14:52;6.90;;;3.30;;
40997;SDS011;26740;45.944;12.480;2022-12-18T05:17:18;7.35;;;4.03;;
40997;SDS011;26740;45.944;12.480;2022-12-18T05:19:43;4.78;;;3.67;;
40997;SDS011;26740;45.944;12.480;2022-12-18T05:22:09;7.68;;;4.07;;
40997;SDS011;26740;45.944;12.480;2022-12-18T05:24:35;6.57;;;3.80;;
40997;SDS011;26740;45.944;12.480;2022-12-18T05:27:01;6.47;;;4.00;;
40997;SDS011;26740;45.944;12.480;2022-12-18T05:29:26;5.85;;;3.22;;
40997;SDS011;26740;45.944;12.480;2022-12-18T05:31:52;5.65;;;3.60;;
40997;SDS011;26740;45.944;12.480;2022-12-18T05:34:18;6.70;;;3.67;;
40997;SDS011;26740;45.944;12.480;2022-12-18T05:36:44;7.53;;;4.05;;
40997;SDS011;26740;45.944;12.480;2022-12-18T05:39:09;6.20;;;3.20;;
40997;SDS011;26740;45.944;12.480;2022-12-18T05:41:35;6.20;;;3.33;;
40997;SDS011;26740;45.944;12.480;2022-12-18T05:44:00;7.15;;;4.13;;
40997;SDS011;26740;45.944;12.480;2022-12-18T05:46:26;6.90;;;3.42;;
40997;SDS011;26740;45.944;12.480;2022-12-18T05:48:52;6.70;;;3.83;;
40997;SDS011;26740;45.944;12.480;2022-12-18T05:51:19;6.70;;;4.30;;
40997;SDS011;26740;45.944;12.480;2022-12-18T05:53:46;9.98;;;4.60;;
40997;SDS011;26740;45.944;12.480;2022-12-18T05:56:21;5.88;;;4.15;;
40997;SDS011;26740;45.944;12.480;2022-12-18T05:58:50;7.20;;;4.13;;
40997;SDS011;26740;45.944;12.480;2022-12-18T06:01:19;4.63;;;3.47;;
40997;SDS011;26740;45.944;12.480;2022-12-18T06:03:46;8.00;;;3.97;;
40997;SDS011;26740;45.944;12.480;2022-12-18T06:06:13;6.38;;;4.22;;
40997;SDS011;26740;45.944;12.480;2022-12-18T06:08:42;9.18;;;5.05;;
40997;SDS011;26740;45.944;12.480;2022-12-18T06:11:08;8.45;;;5.13;;
40997;SDS011;26740;45.944;12.480;2022-12-18T06:13:34;10.70;;;5.65;;
40997;SDS011;26740;45.944;12.480;2022-12-18T06:16:01;9.40;;;4.95;;
40997;SDS011;26740;45.944;12.480;2022-12-18T06:18:28;7.28;;;4.50;;
40997;SDS011;26740;45.944;12.480;2022-12-18T06:20:55;9.45;;;4.60;;
40997;SDS011;26740;45.944;12.480;2022-12-18T06:23:22;11.75;;;5.45;;
40997;SDS011;26740;45.944;12.480;2022-12-18T06:25:48;8.18;;;4.70;;
40997;SDS011;26740;45.944;12.480;2022-12-18T06:28:13;10.35;;;4.93;;
40997;SDS011;26740;45.944;12.480;2022-12-18T06:30:39;9.57;;;4.53;;
40997;SDS011;26740;45.944;12.480;2022-12-18T06:33:05;18.13;;;4.90;;
40997;SDS011;26740;45.944;12.480;2022-12-18T06:35:31;7.80;;;4.72;;
40997;SDS011;26740;45.944;12.480;2022-12-18T06:37:57;9.55;;;4.63;;
40997;SDS011;26740;45.944;12.480;2022-12-18T06:40:23;6.90;;;3.80;;
40997;SDS011;26740;45.944;12.480;2022-12-18T06:42:48;7.13;;;4.35;;
40997;SDS011;26740;45.944;12.480;2022-12-18T06:45:14;11.05;;;4.25;;
40997;SDS011;26740;45.944;12.480;2022-12-18T06:47:40;7.55;;;4.65;;
40997;SDS011;26740;45.944;12.480;2022-12-18T06:50:06;12.25;;;6.15;;
40997;SDS011;26740;45.944;12.480;2022-12-18T06:52:32;10.30;;;5.60;;
40997;SDS011;26740;45.944;12.480;2022-12-18T06:54:58;13.88;;;7.07;;
40997;SDS011;26740;45.944;12.480;2022-12-18T06:57:24;14.13;;;6.97;;
40997;SDS011;26740;45.944;12.480;2022-12-18T06:59:50;8.60;;;5.57;;
40997;SDS011;26740;45.944;12.480;2022-12-18T07:02:15;7.55;;;4.68;;
40997;SDS011;26740;45.944;12.480;2022-12-18T07:04:41;9.23;;;4.80;;
40997;SDS011;26740;45.944;12.480;2022-12-18T07:07:07;8.32;;;3.97;;
40997;SDS011;26740;45.944;12.480;2022-12-18T07:09:32;6.93;;;4.38;;
40997;SDS011;26740;45.944;12.480;2022-12-18T07:11:58;6.32;;;4.13;;
40997;SDS011;26740;45.944;12.480;2022-12-18T07:14:24;10.70;;;4.45;;
40997;SDS011;26740;45.944;12.480;2022-12-18T07:16:49;8.88;;;5.00;;
40997;SDS011;26740;45.944;12.480;2022-12-18T07:19:15;5.32;;;3.70;;
40997;SDS011;26740;45.944;12.480;2022-12-18T07:21:41;7.97;;;4.97;;
40997;SDS011;26740;45.944;12.480;2022-12-18T07:24:06;8.43;;;4.68;;
40997;SDS011;26740;45.944;12.480;2022-12-18T07:26:32;9.30;;;3.58;;
40997;SDS011;26740;45.944;12.480;2022-12-18T07:28:58;6.38;;;3.47;;
40997;SDS011;26740;45.944;12.480;2022-12-18T07:31:24;3.70;;;2.55;;
40997;SDS011;26740;45.944;12.480;2022-12-18T07:33:50;4.80;;;3.17;;
40997;SDS011;26740;45.944;12.480;2022-12-18T07:36:16;4.32;;;3.22;;
40997;SDS011;26740;45.944;12.480;2022-12-18T07:38:43;6.75;;;3.75;;
40997;SDS011;26740;45.944;12.480;2022-12-18T07:41:12;8.27;;;4.45;;
40997;SDS011;26740;45.944;12.480;2022-12-18T07:43:38;6.15;;;4.18;;
40997;SDS011;26740;45.944;12.480;2022-12-18T07:46:05;3.88;;;3.45;;
40997;SDS011;26740;45.944;12.480;2022-12-18T07:48:31;4.25;;;2.92;;
40997;SDS011;26740;45.944;12.480;2022-12-18T07:51:04;6.45;;;3.88;;
40997;SDS011;26740;45.944;12.480;2022-12-18T07:53:31;6.20;;;3.92;;
40997;SDS011;26740;45.944;12.480;2022-12-18T07:56:02;6.45;;;4.10;;
40997;SDS011;26740;45.944;12.480;2022-12-18T07:58:30;5.13;;;3.65;;
40997;SDS011;26740;45.944;12.480;2022-12-18T08:03:32;5.03;;;4.25;;
40997;SDS011;26740;45.944;12.480;2022-12-18T08:05:58;7.18;;;5.45;;
40997;SDS011;26740;45.944;12.480;2022-12-18T08:08:25;8.43;;;4.32;;
40997;SDS011;26740;45.944;12.480;2022-12-18T08:10:51;4.20;;;3.00;;
40997;SDS011;26740;45.944;12.480;2022-12-18T08:13:16;7.70;;;4.65;;
40997;SDS011;26740;45.944;12.480;2022-12-18T08:15:42;6.90;;;4.80;;
40997;SDS011;26740;45.944;12.480;2022-12-18T08:18:07;6.47;;;4.70;;
40997;SDS011;26740;45.944;12.480;2022-12-18T08:20:33;10.00;;;5.78;;
40997;SDS011;26740;45.944;12.480;2022-12-18T08:22:59;9.38;;;5.97;;
40997;SDS011;26740;45.944;12.480;2022-12-18T08:25:24;7.93;;;5.85;;
40997;SDS011;26740;45.944;12.480;2022-12-18T08:27:50;11.30;;;6.70;;
40997;SDS011;26740;45.944;12.480;2022-12-18T08:30:16;10.70;;;6.03;;
40997;SDS011;26740;45.944;12.480;2022-12-18T08:32:41;10.02;;;6.28;;
40997;SDS011;26740;45.944;12.480;2022-12-18T08:35:07;9.55;;;6.22;;
40997;SDS011;26740;45.944;12.480;2022-12-18T08:37:33;10.07;;;6.03;;
40997;SDS011;26740;45.944;12.480;2022-12-18T08:39:59;11.05;;;7.70;;
40997;SDS011;26740;45.944;12.480;2022-12-18T08:42:25;8.27;;;6.18;;
40997;SDS011;26740;45.944;12.480;2022-12-18T08:45:09;12.55;;;6.97;;
40997;SDS011;26740;45.944;12.480;2022-12-18T08:47:35;5.90;;;4.90;;
40997;SDS011;26740;45.944;12.480;2022-12-18T08:50:00;6.35;;;4.88;;
40997;SDS011;26740;45.944;12.480;2022-12-18T08:52:26;7.32;;;5.25;;
40997;SDS011;26740;45.944;12.480;2022-12-18T08:54:53;7.57;;;5.40;;
40997;SDS011;26740;45.944;12.480;2022-12-18T08:57:18;8.88;;;5.78;;
40997;SDS011;26740;45.944;12.480;2022-12-18T08:59:44;7.13;;;5.25;;
40997;SDS011;26740;45.944;12.480;2022-12-18T09:02:10;9.25;;;5.95;;
40997;SDS011;26740;45.944;12.480;2022-12-18T09:04:36;9.73;;;5.10;;
40997;SDS011;26740;45.944;12.480;2022-12-18T09:07:02;7.50;;;5.38;;
40997;SDS011;26740;45.944;12.480;2022-12-18T09:09:28;8.55;;;5.95;;
40997;SDS011;26740;45.944;12.480;2022-12-18T09:11:53;6.85;;;4.78;;
40997;SDS011;26740;45.944;12.480;2022-12-18T09:14:19;7.18;;;5.28;;
40997;SDS011;26740;45.944;12.480;2022-12-18T09:16:45;5.60;;;3.97;;
40997;SDS011;26740;45.944;12.480;2022-12-18T09:19:10;7.82;;;5.43;;
40997;SDS011;26740;45.944;12.480;2022-12-18T09:21:36;8.55;;;5.75;;
40997;SDS011;26740;45.944;12.480;2022-12-18T09:24:04;7.35;;;5.80;;
40997;SDS011;26740;45.944;12.480;2022-12-18T09:26:30;7.38;;;4.32;;
40997;SDS011;26740;45.944;12.480;2022-12-18T09:28:56;7.35;;;4.55;;
40997;SDS011;26740;45.944;12.480;2022-12-18T09:31:22;5.47;;;4.28;;
40997;SDS011;26740;45.944;12.480;2022-12-18T09:33:49;7.65;;;5.28;;
40997;SDS011;26740;45.944;12.480;2022-12-18T09:36:15;11.95;;;5.40;;
40997;SDS011;26740;45.944;12.480;2022-12-18T09:38:42;7.53;;;4.75;;
40997;SDS011;26740;45.944;12.480;2022-12-18T09:44:18;3.92;;;2.88;;
40997;SDS011;26740;45.944;12.480;2022-12-18T09:46:49;4.32;;;3.25;;
40997;SDS011;26740;45.944;12.480;2022-12-18T09:49:21;4.07;;;3.13;;
40997;SDS011;26740;45.944;12.480;2022-12-18T09:51:51;6.55;;;3.55;;
40997;SDS011;26740;45.944;12.480;2022-12-18T09:54:26;4.95;;;3.83;;
40997;SDS011;26740;45.944;12.480;2022-12-18T09:57:14;3.75;;;3.15;;
40997;SDS011;26740;45.944;12.480;2022-12-18T09:59:44;3.63;;;2.63;;
40997;SDS011;26740;45.944;12.480;2022-12-18T10:02:19;5.57;;;3.65;;
40997;SDS011;26740;45.944;12.480;2022-12-18T10:05:02;5.20;;;3.97;;
40997;SDS011;26740;45.944;12.480;2022-12-18T10:07:39;4.72;;;3.30;;
40997;SDS011;26740;45.944;12.480;2022-12-18T10:10:13;6.07;;;3.25;;
40997;SDS011;26740;45.944;12.480;2022-12-18T10:16:19;5.72;;;3.42;;
40997;SDS011;26740;45.944;12.480;2022-12-18T10:18:31;5.32;;;3.67;;
40997;SDS011;26740;45.944;12.480;2022-12-18T10:21:12;5.57;;;3.60;;
40997;SDS011;26740;45.944;12.480;2022-12-18T10:23:52;4.80;;;3.05;;
40997;SDS011;26740;45.944;12.480;2022-12-18T10:26:38;4.40;;;3.03;;
40997;SDS011;26740;45.944;12.480;2022-12-18T10:29:12;6.43;;;3.63;;
40997;SDS011;26740;45.944;12.480;2022-12-18T10:31:39;5.32;;;4.22;;
40997;SDS011;26740;45.944;12.480;2022-12-18T10:34:09;4.90;;;3.00;;
40997;SDS011;26740;45.944;12.480;2022-12-18T10:36:35;4.30;;;3.60;;
40997;SDS011;26740;45.944;12.480;2022-12-18T10:39:14;4.15;;;3.20;;
40997;SDS011;26740;45.944;12.480;2022-12-18T10:41:49;6.32;;;3.92;;
40997;SDS011;26740;45.944;12.480;2022-12-18T10:44:21;5.00;;;3.45;;
40997;SDS011;26740;45.944;12.480;2022-12-18T10:46:49;6.18;;;3.58;;
40997;SDS011;26740;45.944;12.480;2022-12-18T10:51:46;5.93;;;3.95;;
40997;SDS011;26740;45.944;12.480;2022-12-18T10:54:20;5.97;;;3.95;;
40997;SDS011;26740;45.944;12.480;2022-12-18T10:56:47;5.82;;;4.15;;
40997;SDS011;26740;45.944;12.480;2022-12-18T10:59:14;6.95;;;4.22;;
40997;SDS011;26740;45.944;12.480;2022-12-18T11:04:16;6.97;;;3.97;;
40997;SDS011;26740;45.944;12.480;2022-12-18T11:06:53;7.38;;;4.30;;
40997;SDS011;26740;45.944;12.480;2022-12-18T11:09:22;7.00;;;3.95;;
40997;SDS011;26740;45.944;12.480;2022-12-18T11:11:50;5.78;;;3.50;;
40997;SDS011;26740;45.944;12.480;2022-12-18T11:14:29;7.10;;;4.13;;
40997;SDS011;26740;45.944;12.480;2022-12-18T11:16:58;5.45;;;3.83;;
40997;SDS011;26740;45.944;12.480;2022-12-18T11:19:30;7.35;;;3.70;;
40997;SDS011;26740;45.944;12.480;2022-12-18T11:22:00;7.35;;;4.10;;
40997;SDS011;26740;45.944;12.480;2022-12-18T11:24:42;7.53;;;4.32;;
40997;SDS011;26740;45.944;12.480;2022-12-18T11:27:17;6.25;;;4.22;;
40997;SDS011;26740;45.944;12.480;2022-12-18T11:29:43;5.40;;;3.83;;
40997;SDS011;26740;45.944;12.480;2022-12-18T11:35:11;5.50;;;3.67;;
40997;SDS011;26740;45.944;12.480;2022-12-18T11:37:39;5.78;;;3.83;;
40997;SDS011;26740;45.944;12.480;2022-12-18T11:40:11;6.07;;;3.65;;
40997;SDS011;26740;45.944;12.480;2022-12-18T11:43:04;5.68;;;3.60;;
40997;SDS011;26740;45.944;12.480;2022-12-18T11:45:28;3.88;;;2.88;;
40997;SDS011;26740;45.944;12.480;2022-12-18T11:48:02;3.95;;;2.83;;
40997;SDS011;26740;45.944;12.480;2022-12-18T11:53:10;4.80;;;3.20;;
40997;SDS011;26740;45.944;12.480;2022-12-18T11:55:39;4.43;;;2.58;;
40997;SDS011;26740;45.944;12.480;2022-12-18T11:58:14;4.40;;;3.38;;
40997;SDS011;26740;45.944;12.480;2022-12-18T12:00:56;5.90;;;3.25;;
40997;SDS011;26740;45.944;12.480;2022-12-18T12:03:53;5.53;;;4.18;;
40997;SDS011;26740;45.944;12.480;2022-12-18T12:09:23;5.43;;;3.33;;
40997;SDS011;26740;45.944;12.480;2022-12-18T12:17:45;5.50;;;3.72;;
40997;SDS011;26740;45.944;12.480;2022-12-18T12:20:55;4.13;;;3.38;;
40997;SDS011;26740;45.944;12.480;2022-12-18T12:23:52;4.32;;;3.42;;
40997;SDS011;26740;45.944;12.480;2022-12-18T12:32:04;6.70;;;3.22;;
40997;SDS011;26740;45.944;12.480;2022-12-18T12:40:27;7.13;;;4.60;;
40997;SDS011;26740;45.944;12.480;2022-12-18T12:42:58;6.75;;;4.50;;
40997;SDS011;26740;45.944;12.480;2022-12-18T12:48:18;5.93;;;4.00;;
40997;SDS011;26740;45.944;12.480;2022-12-18T12:51:14;8.05;;;4.30;;
40997;SDS011;26740;45.944;12.480;2022-12-18T12:53:41;5.55;;;3.47;;
40997;SDS011;26740;45.944;12.480;2022-12-18T12:56:07;6.32;;;4.20;;
40997;SDS011;26740;45.944;12.480;2022-12-18T13:07:19;4.78;;;3.72;;
40997;SDS011;26740;45.944;12.480;2022-12-18T13:12:35;6.68;;;4.38;;
40997;SDS011;26740;45.944;12.480;2022-12-18T13:15:24;6.28;;;3.65;;
40997;SDS011;26740;45.944;12.480;2022-12-18T13:18:04;4.85;;;3.65;;
40997;SDS011;26740;45.944;12.480;2022-12-18T13:20:34;7.55;;;4.40;;
40997;SDS011;26740;45.944;12.480;2022-12-18T13:23:00;6.00;;;4.18;;
40997;SDS011;26740;45.944;12.480;2022-12-18T13:25:33;6.85;;;4.50;;
40997;SDS011;26740;45.944;12.480;2022-12-18T13:40:55;11.65;;;5.90;;
40997;SDS011;26740;45.944;12.480;2022-12-18T13:43:23;7.00;;;4.32;;
40997;SDS011;26740;45.944;12.480;2022-12-18T13:46:21;7.03;;;4.22;;
40997;SDS011;26740;45.944;12.480;2022-12-18T13:51:20;6.30;;;4.45;;
40997;SDS011;26740;45.944;12.480;2022-12-18T13:56:24;8.50;;;4.20;;
40997;SDS011;26740;45.944;12.480;2022-12-18T14:01:36;9.40;;;3.92;;
40997;SDS011;26740;45.944;12.480;2022-12-18T14:04:11;8.30;;;4.65;;
40997;SDS011;26740;45.944;12.480;2022-12-18T14:06:46;6.85;;;4.35;;
40997;SDS011;26740;45.944;12.480;2022-12-18T14:09:15;8.85;;;4.45;;
40997;SDS011;26740;45.944;12.480;2022-12-18T14:11:52;7.57;;;4.88;;
40997;SDS011;26740;45.944;12.480;2022-12-18T14:14:40;6.72;;;4.57;;
40997;SDS011;26740;45.944;12.480;2022-12-18T14:17:12;6.90;;;4.35;;
40997;SDS011;26740;45.944;12.480;2022-12-18T14:19:42;8.30;;;4.70;;
40997;SDS011;26740;45.944;12.480;2022-12-18T14:22:14;8.00;;;5.15;;
40997;SDS011;26740;45.944;12.480;2022-12-18T14:24:45;6.25;;;4.57;;
40997;SDS011;26740;45.944;12.480;2022-12-18T14:27:12;8.75;;;4.68;;
40997;SDS011;26740;45.944;12.480;2022-12-18T14:29:46;9.95;;;5.40;;
40997;SDS011;26740;45.944;12.480;2022-12-18T14:32:13;8.85;;;5.72;;
40997;SDS011;26740;45.944;12.480;2022-12-18T14:34:47;7.57;;;5.18;;
40997;SDS011;26740;45.944;12.480;2022-12-18T14:37:16;8.18;;;5.28;;
40997;SDS011;26740;45.944;12.480;2022-12-18T14:39:52;9.88;;;5.78;;
40997;SDS011;26740;45.944;12.480;2022-12-18T14:42:19;7.03;;;4.63;;
40997;SDS011;26740;45.944;12.480;2022-12-18T14:44:44;7.07;;;4.65;;
40997;SDS011;26740;45.944;12.480;2022-12-18T14:47:13;7.93;;;5.32;;
40997;SDS011;26740;45.944;12.480;2022-12-18T14:52:23;8.40;;;4.45;;
40997;SDS011;26740;45.944;12.480;2022-12-18T14:54:52;6.57;;;4.32;;
40997;SDS011;26740;45.944;12.480;2022-12-18T14:59:48;7.85;;;4.10;;
40997;SDS011;26740;45.944;12.480;2022-12-18T15:02:22;8.23;;;4.90;;
40997;SDS011;26740;45.944;12.480;2022-12-18T15:07:54;9.65;;;5.18;;
40997;SDS011;26740;45.944;12.480;2022-12-18T15:10:22;9.23;;;5.05;;
40997;SDS011;26740;45.944;12.480;2022-12-18T15:18:09;8.98;;;5.55;;
40997;SDS011;26740;45.944;12.480;2022-12-18T15:25:59;10.40;;;5.97;;
40997;SDS011;26740;45.944;12.480;2022-12-18T15:28:30;9.43;;;5.65;;
40997;SDS011;26740;45.944;12.480;2022-12-18T15:31:03;10.98;;;6.15;;
40997;SDS011;26740;45.944;12.480;2022-12-18T15:33:38;8.53;;;5.00;;
40997;SDS011;26740;45.944;12.480;2022-12-18T15:36:09;10.48;;;4.95;;
40997;SDS011;26740;45.944;12.480;2022-12-18T15:38:37;12.98;;;6.70;;
40997;SDS011;26740;45.944;12.480;2022-12-18T15:41:03;9.23;;;5.85;;
40997;SDS011;26740;45.944;12.480;2022-12-18T15:43:32;11.55;;;6.05;;
40997;SDS011;26740;45.944;12.480;2022-12-18T15:46:04;14.77;;;7.68;;
40997;SDS011;26740;45.944;12.480;2022-12-18T15:48:41;15.98;;;8.38;;
40997;SDS011;26740;45.944;12.480;2022-12-18T15:54:33;12.60;;;7.80;;
40997;SDS011;26740;45.944;12.480;2022-12-18T15:57:17;13.25;;;6.88;;
40997;SDS011;26740;45.944;12.480;2022-12-18T15:59:49;16.08;;;7.68;;
40997;SDS011;26740;45.944;12.480;2022-12-18T16:02:16;12.77;;;6.95;;
40997;SDS011;26740;45.944;12.480;2022-12-18T16:04:43;14.20;;;8.10;;
40997;SDS011;26740;45.944;12.480;2022-12-18T16:07:09;13.32;;;8.07;;
40997;SDS011;26740;45.944;12.480;2022-12-18T16:09:35;21.85;;;10.73;;
40997;SDS011;26740;45.944;12.480;2022-12-18T16:12:01;21.38;;;11.68;;
40997;SDS011;26740;45.944;12.480;2022-12-18T16:14:28;22.92;;;12.07;;
40997;SDS011;26740;45.944;12.480;2022-12-18T16:16:59;23.35;;;12.50;;
40997;SDS011;26740;45.944;12.480;2022-12-18T16:19:27;29.42;;;14.38;;
40997;SDS011;26740;45.944;12.480;2022-12-18T16:21:54;20.95;;;11.50;;
40997;SDS011;26740;45.944;12.480;2022-12-18T16:24:22;21.67;;;11.05;;
40997;SDS011;26740;45.944;12.480;2022-12-18T16:26:59;25.23;;;12.05;;
40997;SDS011;26740;45.944;12.480;2022-12-18T16:29:26;21.42;;;12.05;;
40997;SDS011;26740;45.944;12.480;2022-12-18T16:31:53;20.83;;;10.63;;
40997;SDS011;26740;45.944;12.480;2022-12-18T16:36:51;26.75;;;14.95;;
40997;SDS011;26740;45.944;12.480;2022-12-18T16:39:18;33.65;;;17.63;;
40997;SDS011;26740;45.944;12.480;2022-12-18T16:41:44;35.55;;;20.08;;
40997;SDS011;26740;45.944;12.480;2022-12-18T16:44:10;26.80;;;16.95;;
40997;SDS011;26740;45.944;12.480;2022-12-18T16:46:36;30.38;;;17.00;;
40997;SDS011;26740;45.944;12.480;2022-12-18T16:49:03;34.67;;;18.75;;
40997;SDS011;26740;45.944;12.480;2022-12-18T16:51:28;35.00;;;19.13;;